sensor_id;sensor_type;location;lat;lon;timestamp;pressure;altitude;pressure_sealevel;temperature;humidity
6224;BME280;3145;42.726;23.342;2023-04-25T00:01:15;71920.34;;;-142.70;79.07
6224;BME280;3145;42.726;23.342;2023-04-25T00:03:42;71928.41;;;-142.70;79.71
6224;BME280;3145;42.726;23.342;2023-04-25T00:06:08;71948.53;;;-142.70;81.14
6224;BME280;3145;42.726;23.342;2023-04-25T00:08:36;71974.72;;;-142.70;82.25
6224;BME280;3145;42.726;23.342;2023-04-25T00:11:04;71972.72;;;-142.70;83.36
6224;BME280;3145;42.726;23.342;2023-04-25T00:13:31;71994.88;;;-142.70;84.65
6224;BME280;3145;42.726;23.342;2023-04-25T00:15:58;72006.94;;;-142.70;85.83
6224;BME280;3145;42.726;23.342;2023-04-25T00:18:25;72008.97;;;-142.70;86.94
6224;BME280;3145;42.726;23.342;2023-04-25T00:20:54;72025.06;;;-142.70;87.42
6224;BME280;3145;42.726;23.342;2023-04-25T00:23:21;72031.13;;;-142.70;87.94
6224;BME280;3145;42.726;23.342;2023-04-25T00:25:50;72033.13;;;-142.70;88.86
6224;BME280;3145;42.726;23.342;2023-04-25T00:28:17;72029.09;;;-142.70;89.42
6224;BME280;3145;42.726;23.342;2023-04-25T00:30:43;72035.16;;;-142.70;89.08
6224;BME280;3145;42.726;23.342;2023-04-25T00:33:10;72029.09;;;-142.70;89.36
6224;BME280;3145;42.726;23.342;2023-04-25T00:35:37;72021.06;;;-142.70;88.84
6224;BME280;3145;42.726;23.342;2023-04-25T00:38:04;72021.06;;;-142.70;88.53
6224;BME280;3145;42.726;23.342;2023-04-25T00:40:31;72015.00;;;-142.70;88.35
6224;BME280;3145;42.726;23.342;2023-04-25T00:42:59;71992.84;;;-142.70;88.54
6224;BME280;3145;42.726;23.342;2023-04-25T00:45:28;71984.78;;;-142.70;88.97
6224;BME280;3145;42.726;23.342;2023-04-25T00:47:55;71966.66;;;-142.70;89.03
6224;BME280;3145;42.726;23.342;2023-04-25T00:50:22;71952.56;;;-142.70;88.47
6224;BME280;3145;42.726;23.342;2023-04-25T00:52:49;71944.50;;;-142.70;87.04
6224;BME280;3145;42.726;23.342;2023-04-25T00:55:16;71948.53;;;-142.70;85.94
6224;BME280;3145;42.726;23.342;2023-04-25T00:57:43;71944.50;;;-142.70;84.96
6224;BME280;3145;42.726;23.342;2023-04-25T01:00:11;71936.44;;;-142.70;84.44
6224;BME280;3145;42.726;23.342;2023-04-25T01:02:39;71920.34;;;-142.70;84.09
6224;BME280;3145;42.726;23.342;2023-04-25T01:05:07;71908.25;;;-142.70;83.53
6224;BME280;3145;42.726;23.342;2023-04-25T01:07:34;71908.25;;;-142.70;82.51
6224;BME280;3145;42.726;23.342;2023-04-25T01:10:01;71914.28;;;-142.70;82.43
6224;BME280;3145;42.726;23.342;2023-04-25T01:12:29;71908.25;;;-142.70;82.66
6224;BME280;3145;42.726;23.342;2023-04-25T01:14:56;71938.47;;;-142.70;82.74
6224;BME280;3145;42.726;23.342;2023-04-25T01:17:24;71952.56;;;-142.70;83.32
6224;BME280;3145;42.726;23.342;2023-04-25T01:19:51;71954.59;;;-142.70;83.54
6224;BME280;3145;42.726;23.342;2023-04-25T01:22:19;71962.63;;;-142.70;83.58
6224;BME280;3145;42.726;23.342;2023-04-25T01:24:46;71960.63;;;-142.70;84.33
6224;BME280;3145;42.726;23.342;2023-04-25T01:27:13;71976.75;;;-142.70;84.52
6224;BME280;3145;42.726;23.342;2023-04-25T01:29:40;71976.75;;;-142.70;84.60
6224;BME280;3145;42.726;23.342;2023-04-25T01:32:08;71966.66;;;-142.70;84.70
6224;BME280;3145;42.726;23.342;2023-04-25T01:34:36;71962.63;;;-142.70;84.97
6224;BME280;3145;42.726;23.342;2023-04-25T01:37:02;71952.56;;;-142.70;85.13
6224;BME280;3145;42.726;23.342;2023-04-25T01:39:30;71954.59;;;-142.70;84.35
6224;BME280;3145;42.726;23.342;2023-04-25T01:41:59;71946.53;;;-142.70;83.79
6224;BME280;3145;42.726;23.342;2023-04-25T01:44:26;71942.50;;;-142.70;83.57
6224;BME280;3145;42.726;23.342;2023-04-25T01:46:53;71948.53;;;-142.70;83.05
6224;BME280;3145;42.726;23.342;2023-04-25T01:49:19;71942.50;;;-142.70;83.29
6224;BME280;3145;42.726;23.342;2023-04-25T01:51:46;71940.47;;;-142.70;83.08
6224;BME280;3145;42.726;23.342;2023-04-25T01:54:13;71938.47;;;-142.70;82.92
6224;BME280;3145;42.726;23.342;2023-04-25T01:56:41;71940.47;;;-142.70;82.63
6224;BME280;3145;42.726;23.342;2023-04-25T01:59:08;71940.47;;;-142.70;81.98
6224;BME280;3145;42.726;23.342;2023-04-25T02:01:35;71940.47;;;-142.70;81.88
6224;BME280;3145;42.726;23.342;2023-04-25T02:04:01;71942.50;;;-142.70;81.81
6224;BME280;3145;42.726;23.342;2023-04-25T02:06:28;71938.47;;;-142.70;82.12
6224;BME280;3145;42.726;23.342;2023-04-25T02:08:56;71932.44;;;-142.70;82.03
6224;BME280;3145;42.726;23.342;2023-04-25T02:11:22;71940.47;;;-142.70;81.77
6224;BME280;3145;42.726;23.342;2023-04-25T02:13:50;71944.50;;;-142.70;81.60
6224;BME280;3145;42.726;23.342;2023-04-25T02:16:19;71936.44;;;-142.70;81.64
6224;BME280;3145;42.726;23.342;2023-04-25T02:18:45;71932.44;;;-142.70;81.98
6224;BME280;3145;42.726;23.342;2023-04-25T02:21:12;71928.41;;;-142.70;81.97
6224;BME280;3145;42.726;23.342;2023-04-25T02:23:39;71914.28;;;-142.70;82.04
6224;BME280;3145;42.726;23.342;2023-04-25T02:26:05;71910.28;;;-142.70;81.70
6224;BME280;3145;42.726;23.342;2023-04-25T02:28:32;71916.31;;;-142.70;81.46
6224;BME280;3145;42.726;23.342;2023-04-25T02:31:00;71900.19;;;-142.70;81.20
6224;BME280;3145;42.726;23.342;2023-04-25T02:33:27;71912.28;;;-142.70;81.10
6224;BME280;3145;42.726;23.342;2023-04-25T02:35:54;71908.25;;;-142.70;81.05
6224;BME280;3145;42.726;23.342;2023-04-25T02:38:20;71900.19;;;-142.70;80.90
6224;BME280;3145;42.726;23.342;2023-04-25T02:40:47;71910.28;;;-142.70;80.87
6224;BME280;3145;42.726;23.342;2023-04-25T02:43:14;71902.22;;;-142.70;80.77
6224;BME280;3145;42.726;23.342;2023-04-25T02:45:41;71908.25;;;-142.70;80.39
6224;BME280;3145;42.726;23.342;2023-04-25T02:48:09;71912.28;;;-142.70;80.42
6224;BME280;3145;42.726;23.342;2023-04-25T02:50:36;71904.22;;;-142.70;80.38
6224;BME280;3145;42.726;23.342;2023-04-25T02:53:02;71920.34;;;-142.70;79.85
6224;BME280;3145;42.726;23.342;2023-04-25T02:55:29;71920.34;;;-142.70;79.77
6224;BME280;3145;42.726;23.342;2023-04-25T02:57:56;71920.34;;;-142.70;79.92
6224;BME280;3145;42.726;23.342;2023-04-25T03:00:23;71928.41;;;-142.70;79.64
6224;BME280;3145;42.726;23.342;2023-04-25T03:02:50;71928.41;;;-142.70;79.77
6224;BME280;3145;42.726;23.342;2023-04-25T03:05:18;71936.44;;;-142.70;79.54
6224;BME280;3145;42.726;23.342;2023-04-25T03:07:45;71930.41;;;-142.70;79.77
6224;BME280;3145;42.726;23.342;2023-04-25T03:10:12;71936.44;;;-142.70;79.34
6224;BME280;3145;42.726;23.342;2023-04-25T03:12:39;71940.47;;;-142.70;79.39
6224;BME280;3145;42.726;23.342;2023-04-25T03:15:06;71944.50;;;-142.70;79.17
6224;BME280;3145;42.726;23.342;2023-04-25T03:17:33;71950.56;;;-142.70;79.06
6224;BME280;3145;42.726;23.342;2023-04-25T03:20:00;71960.63;;;-142.70;79.78
6224;BME280;3145;42.726;23.342;2023-04-25T03:22:28;71972.72;;;-142.70;80.00
6224;BME280;3145;42.726;23.342;2023-04-25T03:24:55;71982.78;;;-142.70;79.87
6224;BME280;3145;42.726;23.342;2023-04-25T03:27:21;72037.16;;;-142.70;81.52
6224;BME280;3145;42.726;23.342;2023-04-25T03:29:48;72041.19;;;-142.70;82.71
6224;BME280;3145;42.726;23.342;2023-04-25T03:32:15;72037.16;;;-142.70;82.84
6224;BME280;3145;42.726;23.342;2023-04-25T03:34:41;72043.19;;;-142.70;83.84
6224;BME280;3145;42.726;23.342;2023-04-25T03:37:08;72043.19;;;-142.70;84.44
6224;BME280;3145;42.726;23.342;2023-04-25T03:39:36;72051.25;;;-142.70;84.63
6224;BME280;3145;42.726;23.342;2023-04-25T03:42:03;72047.22;;;-142.70;84.40
6224;BME280;3145;42.726;23.342;2023-04-25T03:44:30;72041.19;;;-142.70;84.68
6224;BME280;3145;42.726;23.342;2023-04-25T03:46:57;72039.19;;;-142.70;84.73
6224;BME280;3145;42.726;23.342;2023-04-25T03:49:24;72075.44;;;-142.70;85.73
6224;BME280;3145;42.726;23.342;2023-04-25T03:51:51;72065.38;;;-142.70;85.79
6224;BME280;3145;42.726;23.342;2023-04-25T03:54:17;72035.16;;;-142.70;86.19
6224;BME280;3145;42.726;23.342;2023-04-25T03:56:46;72045.22;;;-142.70;86.46
6224;BME280;3145;42.726;23.342;2023-04-25T03:59:13;72047.22;;;-142.70;87.43
6224;BME280;3145;42.726;23.342;2023-04-25T04:01:40;72006.94;;;-142.70;88.34
6224;BME280;3145;42.726;23.342;2023-04-25T04:04:07;71964.66;;;-142.70;89.07
6224;BME280;3145;42.726;23.342;2023-04-25T04:06:34;71886.09;;;-142.70;89.68
6224;BME280;3145;42.726;23.342;2023-04-25T04:09:01;71825.69;;;-142.70;89.43
6224;BME280;3145;42.726;23.342;2023-04-25T04:11:28;71779.34;;;-142.70;86.92
6224;BME280;3145;42.726;23.342;2023-04-25T04:13:56;71735.03;;;-142.70;83.04
6224;BME280;3145;42.726;23.342;2023-04-25T04:16:23;71674.63;;;-142.70;81.43
6224;BME280;3145;42.726;23.342;2023-04-25T04:18:50;71658.50;;;-142.70;77.47
6224;BME280;3145;42.726;23.342;2023-04-25T04:21:16;71698.78;;;-142.70;74.35
6224;BME280;3145;42.726;23.342;2023-04-25T04:23:43;71739.06;;;-142.70;75.17
6224;BME280;3145;42.726;23.342;2023-04-25T04:26:10;71785.41;;;-142.70;76.73
6224;BME280;3145;42.726;23.342;2023-04-25T04:28:38;71823.66;;;-142.70;78.05
6224;BME280;3145;42.726;23.342;2023-04-25T04:31:06;71835.75;;;-142.70;79.42
6224;BME280;3145;42.726;23.342;2023-04-25T04:33:33;71855.88;;;-142.70;81.25
6224;BME280;3145;42.726;23.342;2023-04-25T04:36:00;71908.25;;;-142.70;82.84
6224;BME280;3145;42.726;23.342;2023-04-25T04:38:28;71892.16;;;-142.70;83.05
6224;BME280;3145;42.726;23.342;2023-04-25T04:40:55;71892.16;;;-142.70;83.37
6224;BME280;3145;42.726;23.342;2023-04-25T04:43:23;71876.03;;;-142.70;83.58
6224;BME280;3145;42.726;23.342;2023-04-25T04:45:49;71904.22;;;-142.70;83.65
6224;BME280;3145;42.726;23.342;2023-04-25T04:48:17;71928.41;;;-142.70;84.95
6224;BME280;3145;42.726;23.342;2023-04-25T04:50:44;71936.44;;;-142.70;85.80
6224;BME280;3145;42.726;23.342;2023-04-25T04:53:11;71920.34;;;-142.70;86.18
6224;BME280;3145;42.726;23.342;2023-04-25T04:55:38;71904.22;;;-142.70;86.36
6224;BME280;3145;42.726;23.342;2023-04-25T04:58:06;71908.25;;;-142.70;86.11
6224;BME280;3145;42.726;23.342;2023-04-25T05:00:33;71892.16;;;-142.70;85.95
6224;BME280;3145;42.726;23.342;2023-04-25T05:03:00;71872.00;;;-142.70;85.23
6224;BME280;3145;42.726;23.342;2023-04-25T05:05:28;71896.16;;;-142.70;84.00
6224;BME280;3145;42.726;23.342;2023-04-25T05:07:55;71892.16;;;-142.70;84.02
6224;BME280;3145;42.726;23.342;2023-04-25T05:10:22;71886.09;;;-142.70;83.47
6224;BME280;3145;42.726;23.342;2023-04-25T05:12:48;71876.03;;;-142.70;83.62
6224;BME280;3145;42.726;23.342;2023-04-25T05:15:16;71867.97;;;-142.70;83.44
6224;BME280;3145;42.726;23.342;2023-04-25T05:17:43;71851.84;;;-142.70;83.13
6224;BME280;3145;42.726;23.342;2023-04-25T05:20:10;71853.88;;;-142.70;82.22
6224;BME280;3145;42.726;23.342;2023-04-25T05:22:38;71855.88;;;-142.70;81.83
6224;BME280;3145;42.726;23.342;2023-04-25T05:25:07;71847.84;;;-142.70;82.17
6224;BME280;3145;42.726;23.342;2023-04-25T05:27:34;71857.91;;;-142.70;81.63
6224;BME280;3145;42.726;23.342;2023-04-25T05:30:01;71843.81;;;-142.70;81.68
6224;BME280;3145;42.726;23.342;2023-04-25T05:32:28;71843.81;;;-142.70;81.61
6224;BME280;3145;42.726;23.342;2023-04-25T05:34:55;71833.72;;;-142.70;81.66
6224;BME280;3145;42.726;23.342;2023-04-25T05:37:21;71815.59;;;-142.70;82.03
6224;BME280;3145;42.726;23.342;2023-04-25T05:39:49;71815.59;;;-142.70;80.93
6224;BME280;3145;42.726;23.342;2023-04-25T05:42:16;71809.56;;;-142.70;80.12
6224;BME280;3145;42.726;23.342;2023-04-25T05:44:44;71823.66;;;-142.70;81.05
6224;BME280;3145;42.726;23.342;2023-04-25T05:47:10;71821.66;;;-142.70;81.29
6224;BME280;3145;42.726;23.342;2023-04-25T05:49:37;71829.69;;;-142.70;81.43
6224;BME280;3145;42.726;23.342;2023-04-25T05:52:04;71835.75;;;-142.70;81.53
6224;BME280;3145;42.726;23.342;2023-04-25T05:54:31;71841.78;;;-142.70;81.65
6224;BME280;3145;42.726;23.342;2023-04-25T05:56:59;71839.78;;;-142.70;81.67
6224;BME280;3145;42.726;23.342;2023-04-25T05:59:25;71827.69;;;-142.70;81.00
6224;BME280;3145;42.726;23.342;2023-04-25T06:01:53;71817.63;;;-142.70;80.23
6224;BME280;3145;42.726;23.342;2023-04-25T06:04:20;71801.50;;;-142.70;79.79
6224;BME280;3145;42.726;23.342;2023-04-25T06:06:46;71787.41;;;-142.70;79.30
6224;BME280;3145;42.726;23.342;2023-04-25T06:09:13;71783.38;;;-142.70;78.54
6224;BME280;3145;42.726;23.342;2023-04-25T06:11:40;71771.28;;;-142.70;77.74
6224;BME280;3145;42.726;23.342;2023-04-25T06:14:08;71781.38;;;-142.70;78.93
6224;BME280;3145;42.726;23.342;2023-04-25T06:16:35;71781.38;;;-142.70;79.54
6224;BME280;3145;42.726;23.342;2023-04-25T06:19:02;71783.38;;;-142.70;78.88
6224;BME280;3145;42.726;23.342;2023-04-25T06:21:28;71775.31;;;-142.70;78.37
6224;BME280;3145;42.726;23.342;2023-04-25T06:23:55;71763.25;;;-142.70;78.30
6224;BME280;3145;42.726;23.342;2023-04-25T06:26:22;71759.22;;;-142.70;76.95
6224;BME280;3145;42.726;23.342;2023-04-25T06:28:48;71759.22;;;-142.70;76.35
6224;BME280;3145;42.726;23.342;2023-04-25T06:31:16;71759.22;;;-142.70;76.63
6224;BME280;3145;42.726;23.342;2023-04-25T06:33:43;71767.28;;;-142.70;76.54
6224;BME280;3145;42.726;23.342;2023-04-25T06:36:10;71767.28;;;-142.70;76.35
6224;BME280;3145;42.726;23.342;2023-04-25T06:38:37;71755.19;;;-142.70;75.54
6224;BME280;3145;42.726;23.342;2023-04-25T06:41:03;71751.16;;;-142.70;75.47
6224;BME280;3145;42.726;23.342;2023-04-25T06:43:30;71722.97;;;-142.70;75.32
6224;BME280;3145;42.726;23.342;2023-04-25T06:45:58;71735.03;;;-142.70;74.53
6224;BME280;3145;42.726;23.342;2023-04-25T06:48:27;71718.94;;;-142.70;72.92
6224;BME280;3145;42.726;23.342;2023-04-25T06:50:54;71690.72;;;-142.70;73.48
6224;BME280;3145;42.726;23.342;2023-04-25T06:53:21;71678.66;;;-142.70;73.14
6224;BME280;3145;42.726;23.342;2023-04-25T06:55:48;71656.50;;;-142.70;72.18
6224;BME280;3145;42.726;23.342;2023-04-25T06:58:15;71654.47;;;-142.70;71.48
6224;BME280;3145;42.726;23.342;2023-04-25T07:00:42;71666.56;;;-142.70;70.65
6224;BME280;3145;42.726;23.342;2023-04-25T07:03:08;71630.31;;;-142.70;71.22
6224;BME280;3145;42.726;23.342;2023-04-25T07:05:36;71612.19;;;-142.70;70.65
6224;BME280;3145;42.726;23.342;2023-04-25T07:08:03;71592.06;;;-142.70;70.74
6224;BME280;3145;42.726;23.342;2023-04-25T07:10:30;71577.94;;;-142.70;69.95
6224;BME280;3145;42.726;23.342;2023-04-25T07:12:57;71630.31;;;-142.70;70.78
6224;BME280;3145;42.726;23.342;2023-04-25T07:15:24;71630.31;;;-142.70;70.19
6224;BME280;3145;42.726;23.342;2023-04-25T07:17:50;71632.31;;;-142.70;69.85
6224;BME280;3145;42.726;23.342;2023-04-25T07:20:17;71632.31;;;-142.70;69.92
6224;BME280;3145;42.726;23.342;2023-04-25T07:22:45;71624.28;;;-142.70;70.17
6224;BME280;3145;42.726;23.342;2023-04-25T07:25:12;71630.31;;;-142.70;69.75
6224;BME280;3145;42.726;23.342;2023-04-25T07:27:38;71624.28;;;-142.70;69.34
6224;BME280;3145;42.726;23.342;2023-04-25T07:30:07;71604.13;;;-142.70;69.09
6224;BME280;3145;42.726;23.342;2023-04-25T07:32:34;71590.03;;;-142.70;69.02
6224;BME280;3145;42.726;23.342;2023-04-25T07:35:01;71577.94;;;-142.70;68.82
6224;BME280;3145;42.726;23.342;2023-04-25T07:37:28;71547.75;;;-142.70;68.14
6224;BME280;3145;42.726;23.342;2023-04-25T07:39:56;71477.25;;;-142.70;67.29
6224;BME280;3145;42.726;23.342;2023-04-25T07:42:23;71445.03;;;-142.70;65.62
6224;BME280;3145;42.726;23.342;2023-04-25T07:44:50;71443.03;;;-142.70;64.26
6224;BME280;3145;42.726;23.342;2023-04-25T07:47:17;71414.81;;;-142.70;65.53
6224;BME280;3145;42.726;23.342;2023-04-25T07:49:44;71439.00;;;-142.70;63.88
6224;BME280;3145;42.726;23.342;2023-04-25T07:52:12;71428.91;;;-142.70;63.33
6224;BME280;3145;42.726;23.342;2023-04-25T07:54:39;71412.81;;;-142.70;63.48
6224;BME280;3145;42.726;23.342;2023-04-25T07:57:07;71380.59;;;-142.70;63.43
6224;BME280;3145;42.726;23.342;2023-04-25T07:59:34;71344.34;;;-142.70;63.28
6224;BME280;3145;42.726;23.342;2023-04-25T08:02:01;71255.72;;;-142.70;63.89
6224;BME280;3145;42.726;23.342;2023-04-25T08:04:28;71161.09;;;-142.70;60.27
6224;BME280;3145;42.726;23.342;2023-04-25T08:06:54;71122.84;;;-142.70;57.31
6224;BME280;3145;42.726;23.342;2023-04-25T08:09:21;71126.84;;;-142.70;55.22
6224;BME280;3145;42.726;23.342;2023-04-25T08:11:48;71142.97;;;-142.70;52.48
6224;BME280;3145;42.726;23.342;2023-04-25T08:14:17;71144.97;;;-142.70;52.60
6224;BME280;3145;42.726;23.342;2023-04-25T08:16:43;71140.94;;;-142.70;52.45
6224;BME280;3145;42.726;23.342;2023-04-25T08:19:10;71142.97;;;-142.70;53.13
6224;BME280;3145;42.726;23.342;2023-04-25T08:21:37;71183.25;;;-142.70;54.62
6224;BME280;3145;42.726;23.342;2023-04-25T08:24:04;71267.81;;;-142.70;57.68
6224;BME280;3145;42.726;23.342;2023-04-25T08:26:31;71287.97;;;-142.70;56.60
6224;BME280;3145;42.726;23.342;2023-04-25T08:28:58;71287.97;;;-142.70;57.61
6224;BME280;3145;42.726;23.342;2023-04-25T08:31:26;71300.03;;;-142.70;58.54
6224;BME280;3145;42.726;23.342;2023-04-25T08:33:52;71352.41;;;-142.70;58.65
6224;BME280;3145;42.726;23.342;2023-04-25T08:36:19;71364.47;;;-142.70;63.71
6224;BME280;3145;42.726;23.342;2023-04-25T08:38:46;71356.44;;;-142.70;65.93
6224;BME280;3145;42.726;23.342;2023-04-25T08:41:13;71358.44;;;-142.70;66.69
6224;BME280;3145;42.726;23.342;2023-04-25T08:43:42;71398.72;;;-142.70;67.67
6224;BME280;3145;42.726;23.342;2023-04-25T08:46:11;71398.72;;;-142.70;68.44
6224;BME280;3145;42.726;23.342;2023-04-25T08:48:42;71396.69;;;-142.70;69.19
6224;BME280;3145;42.726;23.342;2023-04-25T08:51:17;71430.94;;;-142.70;70.28
6224;BME280;3145;42.726;23.342;2023-04-25T08:53:49;71430.94;;;-142.70;70.59
6224;BME280;3145;42.726;23.342;2023-04-25T08:56:17;71412.81;;;-142.70;70.99
6224;BME280;3145;42.726;23.342;2023-04-25T08:58:48;71424.91;;;-142.70;69.41
6224;BME280;3145;42.726;23.342;2023-04-25T09:01:15;71396.69;;;-142.70;68.94
6224;BME280;3145;42.726;23.342;2023-04-25T09:03:44;71360.44;;;-142.70;70.96
6224;BME280;3145;42.726;23.342;2023-04-25T09:06:12;71326.22;;;-142.70;68.13
6224;BME280;3145;42.726;23.342;2023-04-25T09:08:39;71279.91;;;-142.70;67.33
6224;BME280;3145;42.726;23.342;2023-04-25T09:11:06;71275.88;;;-142.70;67.32
6224;BME280;3145;42.726;23.342;2023-04-25T09:13:33;71279.91;;;-142.70;65.76
6224;BME280;3145;42.726;23.342;2023-04-25T09:16:00;71257.75;;;-142.70;66.15
6224;BME280;3145;42.726;23.342;2023-04-25T09:18:28;71231.56;;;-142.70;66.39
6224;BME280;3145;42.726;23.342;2023-04-25T09:20:58;71191.28;;;-142.70;64.18
6224;BME280;3145;42.726;23.342;2023-04-25T09:23:39;71211.44;;;-142.70;58.22
6224;BME280;3145;42.726;23.342;2023-04-25T09:26:06;71223.50;;;-142.70;59.48
6224;BME280;3145;42.726;23.342;2023-04-25T09:28:33;71207.41;;;-142.70;62.94
6224;BME280;3145;42.726;23.342;2023-04-25T09:31:01;71173.16;;;-142.70;62.41
6224;BME280;3145;42.726;23.342;2023-04-25T09:33:28;71138.94;;;-142.70;59.69
6224;BME280;3145;42.726;23.342;2023-04-25T09:36:03;71090.63;;;-142.70;54.76
6224;BME280;3145;42.726;23.342;2023-04-25T09:38:31;71022.16;;;-142.70;53.21
6224;BME280;3145;42.726;23.342;2023-04-25T09:40:58;70993.97;;;-142.70;54.50
6224;BME280;3145;42.726;23.342;2023-04-25T09:43:26;71062.41;;;-142.70;52.38
6224;BME280;3145;42.726;23.342;2023-04-25T09:45:54;71138.94;;;-142.70;55.81
6224;BME280;3145;42.726;23.342;2023-04-25T09:48:24;71122.84;;;-142.70;55.69
6224;BME280;3145;42.726;23.342;2023-04-25T09:51:05;71122.84;;;-142.70;55.60
6224;BME280;3145;42.726;23.342;2023-04-25T09:53:33;71151.03;;;-142.70;53.61
6224;BME280;3145;42.726;23.342;2023-04-25T09:56:00;71169.16;;;-142.70;54.40
6224;BME280;3145;42.726;23.342;2023-04-25T09:58:29;71155.06;;;-142.70;56.37
6224;BME280;3145;42.726;23.342;2023-04-25T10:00:59;71163.09;;;-142.70;54.24
6224;BME280;3145;42.726;23.342;2023-04-25T10:03:29;71092.63;;;-142.70;55.15
6224;BME280;3145;42.726;23.342;2023-04-25T10:05:57;71066.44;;;-142.70;49.58
6224;BME280;3145;42.726;23.342;2023-04-25T10:08:30;71006.03;;;-142.70;48.62
6224;BME280;3145;42.726;23.342;2023-04-25T10:11:00;70977.84;;;-142.70;47.56
6224;BME280;3145;42.726;23.342;2023-04-25T10:13:28;70937.56;;;-142.70;46.85
6224;BME280;3145;42.726;23.342;2023-04-25T10:15:57;70961.75;;;-142.70;44.79
6224;BME280;3145;42.726;23.342;2023-04-25T10:18:25;70977.84;;;-142.70;45.84
6224;BME280;3145;42.726;23.342;2023-04-25T10:20:53;70987.91;;;-142.70;48.32
6224;BME280;3145;42.726;23.342;2023-04-25T10:23:21;70991.94;;;-142.70;47.54
6224;BME280;3145;42.726;23.342;2023-04-25T10:25:49;71006.03;;;-142.70;46.81
6224;BME280;3145;42.726;23.342;2023-04-25T10:28:17;71036.25;;;-142.70;46.81
6224;BME280;3145;42.726;23.342;2023-04-25T10:31:03;71078.53;;;-142.70;47.55
6224;BME280;3145;42.726;23.342;2023-04-25T10:33:33;71122.84;;;-142.70;45.70
6224;BME280;3145;42.726;23.342;2023-04-25T10:36:09;71193.31;;;-142.70;45.46
6224;BME280;3145;42.726;23.342;2023-04-25T10:38:36;71259.75;;;-142.70;47.04
6224;BME280;3145;42.726;23.342;2023-04-25T10:41:05;71287.97;;;-142.70;48.45
6224;BME280;3145;42.726;23.342;2023-04-25T10:43:35;71306.09;;;-142.70;49.49
6224;BME280;3145;42.726;23.342;2023-04-25T10:46:02;71302.06;;;-142.70;51.34
6224;BME280;3145;42.726;23.342;2023-04-25T10:48:44;71306.09;;;-142.70;53.58
6224;BME280;3145;42.726;23.342;2023-04-25T10:51:16;71291.97;;;-142.70;56.42
6224;BME280;3145;42.726;23.342;2023-04-25T10:53:43;71215.47;;;-142.70;55.51
6224;BME280;3145;42.726;23.342;2023-04-25T10:56:16;71153.03;;;-142.70;51.42
6224;BME280;3145;42.726;23.342;2023-04-25T10:58:44;71134.91;;;-142.70;51.21
6224;BME280;3145;42.726;23.342;2023-04-25T11:01:12;71112.75;;;-142.70;48.69
6224;BME280;3145;42.726;23.342;2023-04-25T11:03:41;71072.50;;;-142.70;49.98
6224;BME280;3145;42.726;23.342;2023-04-25T11:06:18;71024.16;;;-142.70;48.56
6224;BME280;3145;42.726;23.342;2023-04-25T11:08:48;70953.69;;;-142.70;48.93
6224;BME280;3145;42.726;23.342;2023-04-25T11:11:16;70925.50;;;-142.70;45.73
6224;BME280;3145;42.726;23.342;2023-04-25T11:13:44;70937.56;;;-142.70;45.31
6224;BME280;3145;42.726;23.342;2023-04-25T11:16:11;70867.09;;;-142.70;45.16
6224;BME280;3145;42.726;23.342;2023-04-25T11:18:40;70838.91;;;-142.70;43.18
6224;BME280;3145;42.726;23.342;2023-04-25T11:21:07;70828.84;;;-142.70;42.78
6224;BME280;3145;42.726;23.342;2023-04-25T11:23:33;70820.78;;;-142.70;40.66
6224;BME280;3145;42.726;23.342;2023-04-25T11:26:00;70832.88;;;-142.70;40.62
6224;BME280;3145;42.726;23.342;2023-04-25T11:28:29;70949.66;;;-142.70;38.67
6224;BME280;3145;42.726;23.342;2023-04-25T11:30:55;70961.75;;;-142.70;39.46
6224;BME280;3145;42.726;23.342;2023-04-25T11:33:23;70993.97;;;-142.70;40.11
6224;BME280;3145;42.726;23.342;2023-04-25T11:35:53;70993.97;;;-142.70;40.34
6224;BME280;3145;42.726;23.342;2023-04-25T11:38:21;71014.09;;;-142.70;41.65
6224;BME280;3145;42.726;23.342;2023-04-25T11:40:50;71066.44;;;-142.70;43.21
6224;BME280;3145;42.726;23.342;2023-04-25T11:43:17;71044.28;;;-142.70;44.15
6224;BME280;3145;42.726;23.342;2023-04-25T11:45:48;71046.31;;;-142.70;43.14
6224;BME280;3145;42.726;23.342;2023-04-25T11:48:15;71102.69;;;-142.70;42.93
6224;BME280;3145;42.726;23.342;2023-04-25T11:50:42;71090.63;;;-142.70;43.55
6224;BME280;3145;42.726;23.342;2023-04-25T11:53:09;71106.72;;;-142.70;44.77
6224;BME280;3145;42.726;23.342;2023-04-25T11:55:36;71070.47;;;-142.70;43.72
6224;BME280;3145;42.726;23.342;2023-04-25T11:58:04;71106.72;;;-142.70;41.90
6224;BME280;3145;42.726;23.342;2023-04-25T12:00:31;71106.72;;;-142.70;43.12
6224;BME280;3145;42.726;23.342;2023-04-25T12:02:59;71086.59;;;-142.70;43.15
6224;BME280;3145;42.726;23.342;2023-04-25T12:05:26;71056.38;;;-142.70;41.92
6224;BME280;3145;42.726;23.342;2023-04-25T12:07:54;71050.34;;;-142.70;40.81
6224;BME280;3145;42.726;23.342;2023-04-25T12:10:21;71010.06;;;-142.70;41.68
6224;BME280;3145;42.726;23.342;2023-04-25T12:12:48;71006.03;;;-142.70;39.64
6224;BME280;3145;42.726;23.342;2023-04-25T12:15:16;71016.09;;;-142.70;40.87
6224;BME280;3145;42.726;23.342;2023-04-25T12:17:45;71010.06;;;-142.70;40.65
6224;BME280;3145;42.726;23.342;2023-04-25T12:20:15;70987.91;;;-142.70;40.69
6224;BME280;3145;42.726;23.342;2023-04-25T12:22:44;70989.94;;;-142.70;40.80
6224;BME280;3145;42.726;23.342;2023-04-25T12:25:12;70995.97;;;-142.70;40.09
6224;BME280;3145;42.726;23.342;2023-04-25T12:27:39;71032.22;;;-142.70;40.47
6224;BME280;3145;42.726;23.342;2023-04-25T12:30:08;71094.63;;;-142.70;44.51
6224;BME280;3145;42.726;23.342;2023-04-25T12:32:35;71179.22;;;-142.70;47.50
6224;BME280;3145;42.726;23.342;2023-04-25T12:35:03;71221.50;;;-142.70;52.63
6224;BME280;3145;42.726;23.342;2023-04-25T12:37:31;71296.00;;;-142.70;54.46
6224;BME280;3145;42.726;23.342;2023-04-25T12:39:58;71360.44;;;-142.70;55.79
6224;BME280;3145;42.726;23.342;2023-04-25T12:42:25;71384.63;;;-142.70;56.96
6224;BME280;3145;42.726;23.342;2023-04-25T12:44:51;71414.81;;;-142.70;57.59
6224;BME280;3145;42.726;23.342;2023-04-25T12:47:18;71404.75;;;-142.70;59.12
6224;BME280;3145;42.726;23.342;2023-04-25T12:49:45;71406.78;;;-142.70;61.71
6224;BME280;3145;42.726;23.342;2023-04-25T12:52:11;71400.72;;;-142.70;60.96